Lewis B Strait — WDJ7777 — position and weather

sailwx.info

Track history (hours):
 
Tides and Currents Weather Stations Pressure Air Temp Water Temp Dewpoint Dewpoint Depression Visibility Wind Speed Wind Dir Waves Ship Positions

Lewis B Strait

Owner: Western Rivers Boat Mgt., Paducah, KY. More information available from US FCC via Universal Licensing System and Coast Guard Vessel Documentation Center.

Last reported at 2017-Nov-19 18:09 UTC. Time now 2017-Nov-24 14:45 UTC.
Position N 32°40' W 091°08'.

Length 54 m; draft 2.9 m.

Type: Tow > 200 m length. MMSI: 368010020.

Date/timePositionNaut miles runAvg speedWind from/ knotsBaromVisibWave heightAir tempDewpointWater temp
2017-Nov-19 18:09N 32°40' W 091°08'3 2.6
2017-Nov-19 17:10N 32°38' W 091°09'1 2.9
2017-Nov-19 16:58N 32°37' W 091°09'2 3.5
2017-Nov-19 16:30N 32°36' W 091°08'2 3.4
2017-Nov-19 16:00N 32°35' W 091°07'2 3.5
2017-Nov-19 15:30N 32°33' W 091°06'2 3.1
2017-Nov-19 15:00N 32°31' W 091°06'2 4.7
2017-Nov-19 14:31N 32°29' W 091°07'2 3.4
2017-Nov-19 14:01N 32°28' W 091°06'2 3.7
2017-Nov-19 13:30N 32°27' W 091°04'2 3.6
2017-Nov-19 13:01N 32°26' W 091°02'2 3.6
2017-Nov-19 12:31N 32°25' W 091°00'2 3.2
2017-Nov-19 12:01N 32°24' W 090°59'1 2.7
2017-Nov-19 11:30N 32°23' W 090°60'1 2.9
2017-Nov-19 11:01N 32°21' W 090°60'2 4.1
2017-Nov-19 10:30N 32°21' W 090°57'2 3.8
2017-Nov-19 10:01N 32°21' W 090°55'1 2.9
2017-Nov-19 09:30N 32°20' W 090°54'2 3.5
2017-Nov-19 09:01N 32°18' W 090°55'0 0.1
2017-Nov-19 08:30N 32°18' W 090°55'0 0.0
2017-Nov-19 08:01N 32°18' W 090°55'0 0.0
2017-Nov-19 07:30N 32°18' W 090°55'0 0.0
2017-Nov-19 07:01N 32°18' W 090°55'0 0.0
2017-Nov-19 06:31N 32°18' W 090°55'1 1.2
2017-Nov-19 06:01N 32°18' W 090°56'2 3.7
2017-Nov-19 05:31N 32°17' W 090°57'2 3.3
2017-Nov-19 05:00N 32°15' W 090°59'1 2.9
2017-Nov-19 04:31N 32°14' W 090°59'2 3.6
2017-Nov-19 04:00N 32°12' W 090°59'2 3.3
2017-Nov-19 03:30N 32°10' W 090°60'2 3.2
2017-Nov-19 03:01N 32°09' W 091°00'2 3.3
2017-Nov-19 02:31N 32°07' W 091°01'2 2.7
2017-Nov-19 01:55N 32°07' W 091°03'2 3.1
2017-Nov-19 01:16N 32°08' W 091°05'1 3.4
2017-Nov-19 01:00N 32°08' W 091°06'1 2.7
2017-Nov-19 00:31N 32°07' W 091°06'4 3.5
2017-Nov-18 23:26N 32°04' W 091°03'1 2.3
2017-Nov-18 23:01N 32°03' W 091°03'2 1.7
2017-Nov-18 22:00N 32°01' W 091°04'  
2017-Nov-12 09:41N 31°42' W 091°24'1 6.7
2017-Nov-12 09:30N 31°43' W 091°24'4 7.3
2017-Nov-12 08:57N 31°46' W 091°22'5 7.4
2017-Nov-12 08:16N 31°51' W 091°20'2 7.3
2017-Nov-12 08:01N 31°51' W 091°18'3 6.7
2017-Nov-12 07:31N 31°52' W 091°14'11 6.3
2017-Nov-12 05:48N 31°60' W 091°05'6 6.2
2017-Nov-12 04:47N 32°06' W 091°06'2 6.1
2017-Nov-12 04:30N 32°08' W 091°06'4 7.1
2017-Nov-12 04:00N 32°07' W 091°02'3 6.6
2017-Nov-12 03:31N 32°10' W 091°00'4 7.2
2017-Nov-12 03:01N 32°13' W 090°59'4 7.1
2017-Nov-12 02:30N 32°17' W 090°57'2 5.0
2017-Nov-12 02:01N 32°18' W 090°55'0 0.1
2017-Nov-12 01:30N 32°18' W 090°55'0 0.0
2017-Nov-12 01:00N 32°18' W 090°55'0 0.0
2017-Nov-12 00:30N 32°18' W 090°55'1 2.2
2017-Nov-12 00:00N 32°19' W 090°54'3 5.4
2017-Nov-11 23:31N 32°21' W 090°56'3 6.2
2017-Nov-11 23:00N 32°21' W 091°00'4 7.2
2017-Nov-11 22:31N 32°25' W 090°60'4 7.3
2017-Nov-11 22:00N 32°26' W 091°04'4 7.1
2017-Nov-11 21:31N 32°29' W 091°07'4 7.7
2017-Nov-11 20:58N 32°33' W 091°06'3 6.5
2017-Nov-11 20:31N 32°35' W 091°08'  
Track history (hours):
 
Tides and Currents Weather Stations Pressure Air Temp Water Temp Dewpoint Dewpoint Depression Visibility Wind Speed Wind Dir Waves Ship Positions

Lewis B Strait

Owner: Western Rivers Boat Mgt., Paducah, KY. More information available from US FCC via Universal Licensing System and Coast Guard Vessel Documentation Center.

Last reported at 2017-Nov-19 18:09 UTC. Time now 2017-Nov-24 14:45 UTC.
Position N 32°40' W 091°08'.

Length 54 m; draft 2.9 m.

Type: Tow > 200 m length. MMSI: 368010020.

Date/timePositionNaut miles runAvg speedWind from/ knotsBaromVisibWave heightAir tempDewpointWater temp
2017-Nov-19 18:09N 32°40' W 091°08'3 2.6
2017-Nov-19 17:10N 32°38' W 091°09'1 2.9
2017-Nov-19 16:58N 32°37' W 091°09'2 3.5
2017-Nov-19 16:30N 32°36' W 091°08'2 3.4
2017-Nov-19 16:00N 32°35' W 091°07'2 3.5
2017-Nov-19 15:30N 32°33' W 091°06'2 3.1
2017-Nov-19 15:00N 32°31' W 091°06'2 4.7
2017-Nov-19 14:31N 32°29' W 091°07'2 3.4
2017-Nov-19 14:01N 32°28' W 091°06'2 3.7
2017-Nov-19 13:30N 32°27' W 091°04'2 3.6
2017-Nov-19 13:01N 32°26' W 091°02'2 3.6
2017-Nov-19 12:31N 32°25' W 091°00'2 3.2
2017-Nov-19 12:01N 32°24' W 090°59'1 2.7
2017-Nov-19 11:30N 32°23' W 090°60'1 2.9
2017-Nov-19 11:01N 32°21' W 090°60'2 4.1
2017-Nov-19 10:30N 32°21' W 090°57'2 3.8
2017-Nov-19 10:01N 32°21' W 090°55'1 2.9
2017-Nov-19 09:30N 32°20' W 090°54'2 3.5
2017-Nov-19 09:01N 32°18' W 090°55'0 0.1
2017-Nov-19 08:30N 32°18' W 090°55'0 0.0
2017-Nov-19 08:01N 32°18' W 090°55'0 0.0
2017-Nov-19 07:30N 32°18' W 090°55'0 0.0
2017-Nov-19 07:01N 32°18' W 090°55'0 0.0
2017-Nov-19 06:31N 32°18' W 090°55'1 1.2
2017-Nov-19 06:01N 32°18' W 090°56'2 3.7
2017-Nov-19 05:31N 32°17' W 090°57'2 3.3
2017-Nov-19 05:00N 32°15' W 090°59'1 2.9
2017-Nov-19 04:31N 32°14' W 090°59'2 3.6
2017-Nov-19 04:00N 32°12' W 090°59'2 3.3
2017-Nov-19 03:30N 32°10' W 090°60'2 3.2
2017-Nov-19 03:01N 32°09' W 091°00'2 3.3
2017-Nov-19 02:31N 32°07' W 091°01'2 2.7
2017-Nov-19 01:55N 32°07' W 091°03'2 3.1
2017-Nov-19 01:16N 32°08' W 091°05'1 3.4
2017-Nov-19 01:00N 32°08' W 091°06'1 2.7
2017-Nov-19 00:31N 32°07' W 091°06'4 3.5
2017-Nov-18 23:26N 32°04' W 091°03'1 2.3
2017-Nov-18 23:01N 32°03' W 091°03'2 1.7
2017-Nov-18 22:00N 32°01' W 091°04'  
2017-Nov-12 09:41N 31°42' W 091°24'1 6.7
2017-Nov-12 09:30N 31°43' W 091°24'4 7.3
2017-Nov-12 08:57N 31°46' W 091°22'5 7.4
2017-Nov-12 08:16N 31°51' W 091°20'2 7.3
2017-Nov-12 08:01N 31°51' W 091°18'3 6.7
2017-Nov-12 07:31N 31°52' W 091°14'11 6.3
2017-Nov-12 05:48N 31°60' W 091°05'6 6.2
2017-Nov-12 04:47N 32°06' W 091°06'2 6.1
2017-Nov-12 04:30N 32°08' W 091°06'4 7.1
2017-Nov-12 04:00N 32°07' W 091°02'3 6.6
2017-Nov-12 03:31N 32°10' W 091°00'4 7.2
2017-Nov-12 03:01N 32°13' W 090°59'4 7.1
2017-Nov-12 02:30N 32°17' W 090°57'2 5.0
2017-Nov-12 02:01N 32°18' W 090°55'0 0.1
2017-Nov-12 01:30N 32°18' W 090°55'0 0.0
2017-Nov-12 01:00N 32°18' W 090°55'0 0.0
2017-Nov-12 00:30N 32°18' W 090°55'1 2.2
2017-Nov-12 00:00N 32°19' W 090°54'3 5.4
2017-Nov-11 23:31N 32°21' W 090°56'3 6.2
2017-Nov-11 23:00N 32°21' W 091°00'4 7.2
2017-Nov-11 22:31N 32°25' W 090°60'4 7.3
2017-Nov-11 22:00N 32°26' W 091°04'4 7.1
2017-Nov-11 21:31N 32°29' W 091°07'4 7.7
2017-Nov-11 20:58N 32°33' W 091°06'3 6.5
2017-Nov-11 20:31N 32°35' W 091°08'  

Dump ship's entire track history